createdAt,value
2023-01-15T00:01:46.473Z,30.90
2023-01-15T00:04:13.831Z,28.00
2023-01-15T00:06:42.551Z,29.30
2023-01-15T00:09:13.863Z,35.00
2023-01-15T00:11:41.120Z,29.50
2023-01-15T00:14:08.264Z,26.70
2023-01-15T00:16:35.522Z,32.60
2023-01-15T00:19:04.633Z,41.60
2023-01-15T00:21:31.880Z,30.30
2023-01-15T00:24:17.958Z,25.50
2023-01-15T00:27:03.847Z,25.20
2023-01-15T00:29:32.430Z,27.60
2023-01-15T00:32:02.120Z,28.10
2023-01-15T00:34:31.446Z,36.20
2023-01-15T00:36:59.098Z,30.30
2023-01-15T00:39:26.964Z,30.60
2023-01-15T00:41:54.761Z,29.60
2023-01-15T00:44:22.101Z,24.40
2023-01-15T00:46:51.710Z,25.60
2023-01-15T00:49:21.297Z,31.50
2023-01-15T00:51:50.291Z,29.70
2023-01-15T00:54:17.987Z,29.70
2023-01-15T00:56:45.413Z,30.10
2023-01-15T00:59:12.873Z,28.10
2023-01-15T01:01:40.512Z,29.10
2023-01-15T01:04:07.985Z,33.60
2023-01-15T01:06:35.547Z,27.80
2023-01-15T01:09:19.795Z,29.10
2023-01-15T01:11:49.094Z,36.60
2023-01-15T01:14:16.245Z,24.50
2023-01-15T01:16:44.210Z,20.70
2023-01-15T01:19:16.583Z,29.20
2023-01-15T01:21:44.963Z,35.50
2023-01-15T01:24:13.357Z,28.00
2023-01-15T01:26:41.014Z,34.70
2023-01-15T01:29:08.152Z,31.20
2023-01-15T01:31:35.382Z,26.50
2023-01-15T01:34:02.659Z,24.10
2023-01-15T01:36:34.425Z,28.80
2023-01-15T01:39:02.071Z,28.80
2023-01-15T01:41:29.223Z,31.50
2023-01-15T01:44:09.213Z,31.90
2023-01-15T01:46:36.748Z,29.30
2023-01-15T01:49:05.314Z,22.10
2023-01-15T01:51:38.221Z,23.60
2023-01-15T01:54:05.386Z,31.00
2023-01-15T01:56:33.629Z,29.80
2023-01-15T01:59:01.511Z,24.20
2023-01-15T02:01:28.774Z,31.10
2023-01-15T02:03:56.201Z,38.20
2023-01-15T02:06:24.854Z,30.70
2023-01-15T02:08:52.466Z,21.20
2023-01-15T02:11:21.841Z,29.70
2023-01-15T02:13:52.346Z,32.10
2023-01-15T02:16:51.991Z,32.50
2023-01-15T02:19:41.767Z,25.50
2023-01-15T02:22:39.123Z,29.10
2023-01-15T02:25:17.843Z,30.10
2023-01-15T02:27:55.849Z,26.40
2023-01-15T02:30:28.570Z,31.40
2023-01-15T02:33:01.724Z,29.30
2023-01-15T02:35:40.442Z,31.30
2023-01-15T02:38:11.587Z,33.20
2023-01-15T02:40:39.133Z,28.50
2023-01-15T02:43:06.301Z,24.90
2023-01-15T02:45:35.042Z,33.50
2023-01-15T02:48:09.124Z,26.70
2023-01-15T02:50:38.245Z,27.00
2023-01-15T02:53:08.221Z,33.30
2023-01-15T02:55:42.516Z,34.50
2023-01-15T02:58:12.591Z,34.20
2023-01-15T03:00:44.639Z,30.30
2023-01-15T03:03:22.395Z,29.70
2023-01-15T03:05:54.768Z,33.10
2023-01-15T03:08:21.920Z,29.00
2023-01-15T03:11:12.319Z,29.30
2023-01-15T03:13:53.598Z,31.40
2023-01-15T03:16:39.983Z,37.10
2023-01-15T03:19:14.007Z,24.00
2023-01-15T03:21:49.964Z,31.80
2023-01-15T03:24:21.758Z,28.10
2023-01-15T03:26:48.979Z,33.60
2023-01-15T03:29:16.136Z,36.70
2023-01-15T03:31:45.118Z,31.10
2023-01-15T03:34:12.363Z,32.20
2023-01-15T03:36:40.843Z,28.50
2023-01-15T03:39:08.304Z,32.70
2023-01-15T03:42:23.794Z,31.20
2023-01-15T03:45:25.651Z,33.60
2023-01-15T03:47:56.901Z,31.20
2023-01-15T03:50:33.586Z,33.50
2023-01-15T03:53:08.001Z,38.80
2023-01-15T03:55:55.425Z,22.80
2023-01-15T03:58:29.676Z,29.20
2023-01-15T04:01:00.091Z,26.60
2023-01-15T04:03:29.172Z,32.50
2023-01-15T04:05:58.243Z,29.80
2023-01-15T04:08:26.944Z,37.40
2023-01-15T04:10:58.424Z,28.20
2023-01-15T04:13:31.217Z,24.80
2023-01-15T04:15:58.926Z,36.90
2023-01-15T04:18:26.492Z,33.10
2023-01-15T04:20:55.984Z,31.20
2023-01-15T04:23:23.545Z,40.10
2023-01-15T04:25:50.805Z,30.00
2023-01-15T04:28:18.054Z,36.70
2023-01-15T04:30:45.365Z,37.20
2023-01-15T04:33:12.556Z,37.90
2023-01-15T04:35:39.715Z,32.00
2023-01-15T04:38:06.857Z,38.40
2023-01-15T04:40:52.785Z,31.30
2023-01-15T04:43:38.433Z,33.10
2023-01-15T04:46:05.518Z,28.30
2023-01-15T04:48:32.621Z,29.80
2023-01-15T04:51:04.417Z,32.70
2023-01-15T04:53:31.748Z,33.70
2023-01-15T04:56:02.991Z,34.90
2023-01-15T04:58:30.130Z,26.50
2023-01-15T05:00:57.622Z,29.50
2023-01-15T05:03:24.948Z,40.10
2023-01-15T05:05:52.171Z,40.30
2023-01-15T05:08:19.549Z,32.40
2023-01-15T05:10:46.712Z,38.30
2023-01-15T05:13:13.925Z,39.90
2023-01-15T05:15:42.985Z,31.30
2023-01-15T05:18:10.411Z,37.20
2023-01-15T05:20:37.754Z,34.60
2023-01-15T05:23:04.899Z,52.40
2023-01-15T05:25:32.156Z,38.70
2023-01-15T05:27:59.300Z,45.10
2023-01-15T05:30:26.462Z,31.20
2023-01-15T05:32:53.704Z,46.30
2023-01-15T05:35:20.859Z,49.20
2023-01-15T05:37:48.001Z,46.10
2023-01-15T05:40:15.159Z,39.20
2023-01-15T05:42:42.413Z,39.00
2023-01-15T05:45:10.064Z,51.20
2023-01-15T05:47:37.326Z,37.80
2023-01-15T05:50:05.129Z,43.40
2023-01-15T05:52:32.272Z,44.60
2023-01-15T05:54:59.481Z,45.20
2023-01-15T05:57:26.536Z,36.40
2023-01-15T05:59:55.364Z,40.40
2023-01-15T06:02:23.171Z,36.80
2023-01-15T06:04:50.435Z,39.00
2023-01-15T06:07:20.406Z,36.30
2023-01-15T06:09:47.514Z,35.30
2023-01-15T06:12:14.654Z,42.20
2023-01-15T06:14:41.797Z,41.90
2023-01-15T06:17:09.056Z,34.00
2023-01-15T06:19:36.100Z,51.00
2023-01-15T06:22:04.169Z,47.60
2023-01-15T06:24:31.329Z,45.60
2023-01-15T06:26:58.473Z,51.40
2023-01-15T06:29:25.669Z,45.00
2023-01-15T06:31:52.770Z,42.90
2023-01-15T06:34:20.017Z,56.90
2023-01-15T06:36:47.174Z,52.60
2023-01-15T06:39:14.432Z,46.30
2023-01-15T06:42:00.315Z,43.60
2023-01-15T06:44:46.401Z,46.80
2023-01-15T06:47:22.385Z,43.50
2023-01-15T06:49:51.790Z,46.00
2023-01-15T06:52:19.020Z,42.90
2023-01-15T06:54:46.186Z,44.20
2023-01-15T06:57:13.649Z,46.70
2023-01-15T06:59:40.871Z,42.00
2023-01-15T07:02:08.189Z,52.00
2023-01-15T07:04:35.299Z,38.10
2023-01-15T07:07:02.528Z,42.30
2023-01-15T07:09:29.897Z,48.90
2023-01-15T07:11:57.131Z,60.10
2023-01-15T07:14:25.834Z,47.20
2023-01-15T07:16:53.293Z,54.30
2023-01-15T07:19:20.817Z,49.20
2023-01-15T07:21:49.211Z,52.50
2023-01-15T07:24:17.187Z,55.20
2023-01-15T07:26:45.934Z,51.10
2023-01-15T07:29:13.841Z,47.50
2023-01-15T07:31:41.842Z,49.70
2023-01-15T07:34:09.156Z,52.10
2023-01-15T07:36:37.054Z,47.80
2023-01-15T07:39:05.856Z,64.60
2023-01-15T07:41:52.068Z,55.40
2023-01-15T07:44:39.636Z,45.40
2023-01-15T07:47:39.370Z,42.40
2023-01-15T07:50:09.444Z,44.40
2023-01-15T07:52:36.926Z,43.60
2023-01-15T07:55:04.589Z,49.10
2023-01-15T07:57:31.792Z,42.90
2023-01-15T07:59:58.994Z,36.00
2023-01-15T08:02:26.617Z,36.60
2023-01-15T08:04:53.723Z,37.10
2023-01-15T08:07:20.851Z,46.50
2023-01-15T08:09:48.095Z,37.30
2023-01-15T08:12:34.009Z,34.30
2023-01-15T08:15:13.713Z,30.70
2023-01-15T08:17:42.952Z,32.20
2023-01-15T08:20:13.096Z,36.20
2023-01-15T08:22:41.534Z,33.80
2023-01-15T08:25:09.584Z,35.00
2023-01-15T08:27:37.780Z,32.70
2023-01-15T08:30:06.061Z,23.80
2023-01-15T08:32:33.204Z,31.10
2023-01-15T08:35:00.578Z,30.30
2023-01-15T08:37:27.805Z,29.50
2023-01-15T08:39:55.158Z,24.10
2023-01-15T08:42:22.826Z,23.70
2023-01-15T08:44:50.077Z,26.60
2023-01-15T08:47:17.846Z,25.70
2023-01-15T08:49:46.627Z,41.30
2023-01-15T08:52:14.492Z,43.40
2023-01-15T08:54:42.304Z,46.40
2023-01-15T08:57:10.122Z,38.80
2023-01-15T08:59:39.013Z,21.90
2023-01-15T09:02:06.435Z,24.00
2023-01-15T09:04:33.739Z,34.50
2023-01-15T09:07:01.261Z,28.70
2023-01-15T09:09:28.634Z,27.90
2023-01-15T09:11:55.679Z,28.10
2023-01-15T09:14:56.042Z,36.40
2023-01-15T09:17:09.865Z,31.60
2023-01-15T09:19:39.664Z,29.60
2023-01-15T09:22:06.914Z,23.90
2023-01-15T09:24:34.121Z,27.90
2023-01-15T09:27:01.346Z,29.30
2023-01-15T09:29:28.990Z,44.50
2023-01-15T09:31:56.169Z,35.10
2023-01-15T09:34:23.379Z,27.00
2023-01-15T09:36:51.595Z,27.70
2023-01-15T09:39:18.715Z,32.30
2023-01-15T09:42:04.585Z,35.20
2023-01-15T09:44:44.132Z,32.40
2023-01-15T09:47:24.299Z,29.20
2023-01-15T09:50:30.341Z,23.70
2023-01-15T09:53:25.296Z,22.50
2023-01-15T09:55:52.624Z,29.90
2023-01-15T09:58:21.964Z,25.40
2023-01-15T10:00:50.793Z,29.10
2023-01-15T10:03:25.831Z,28.30
2023-01-15T10:06:07.102Z,19.80
2023-01-15T10:08:37.679Z,21.60
2023-01-15T10:11:11.948Z,25.40
2023-01-15T10:13:42.171Z,30.50
2023-01-15T10:16:10.920Z,28.10
2023-01-15T10:18:39.337Z,28.10
2023-01-15T10:21:15.600Z,27.60
2023-01-15T10:24:04.162Z,26.40
2023-01-15T10:26:56.705Z,29.20
2023-01-15T10:29:48.831Z,26.70
2023-01-15T10:32:19.391Z,32.80
2023-01-15T10:35:08.429Z,28.30
2023-01-15T10:37:50.731Z,28.30
2023-01-15T10:40:55.875Z,26.30
2023-01-15T10:43:49.113Z,22.90
2023-01-15T10:46:22.516Z,24.00
2023-01-15T10:48:51.017Z,23.90
2023-01-15T10:51:22.198Z,30.30
2023-01-15T10:53:59.479Z,28.90
2023-01-15T10:56:42.560Z,27.50
2023-01-15T10:59:15.857Z,22.10
2023-01-15T11:01:43.135Z,31.80
2023-01-15T11:04:13.740Z,25.50
2023-01-15T11:06:40.992Z,30.90
2023-01-15T11:09:16.535Z,34.30
2023-01-15T11:12:00.853Z,31.10
2023-01-15T11:14:57.531Z,41.80
2023-01-15T11:17:55.503Z,27.60
2023-01-15T11:20:36.166Z,31.50
2023-01-15T11:23:19.504Z,38.20
2023-01-15T11:25:51.881Z,40.30
2023-01-15T11:28:21.287Z,51.30
2023-01-15T11:30:55.828Z,45.50
2023-01-15T11:33:28.164Z,35.30
2023-01-15T11:36:21.985Z,33.90
2023-01-15T11:38:50.033Z,27.70
2023-01-15T11:41:26.321Z,35.60
2023-01-15T11:44:18.877Z,43.00
2023-01-15T11:47:05.442Z,33.10
2023-01-15T11:49:51.419Z,31.80
2023-01-15T12:00:04.693Z,44.40
2023-01-15T12:02:51.306Z,31.60
2023-01-15T12:05:26.185Z,40.80
2023-01-15T12:07:55.843Z,37.80
2023-01-15T12:10:45.875Z,30.90
2023-01-15T12:13:18.814Z,36.70
2023-01-15T12:15:55.472Z,40.30
2023-01-15T12:18:33.656Z,39.50
2023-01-15T12:21:05.559Z,36.50
2023-01-15T12:23:45.303Z,36.60
2023-01-15T12:26:28.789Z,35.40
2023-01-15T12:29:05.057Z,36.20
2023-01-15T12:31:40.729Z,38.00
2023-01-15T12:34:38.820Z,42.50
2023-01-15T12:37:10.279Z,44.50
2023-01-15T12:39:44.313Z,37.40
2023-01-15T12:42:31.938Z,34.80
2023-01-15T12:45:01.186Z,36.20
2023-01-15T12:47:48.939Z,39.30
2023-01-15T12:50:22.626Z,42.80
2023-01-15T12:52:52.633Z,33.10
2023-01-15T12:55:21.225Z,42.30
2023-01-15T12:57:54.262Z,43.00
2023-01-15T13:00:33.206Z,39.80
2023-01-15T13:03:12.820Z,33.30
2023-01-15T13:05:47.961Z,42.60
2023-01-15T16:36:40.629Z,78.60
2023-01-15T16:39:24.569Z,66.70
2023-01-15T16:41:57.085Z,77.20
2023-01-15T16:44:39.634Z,65.60
2023-01-15T16:47:07.630Z,63.50
2023-01-15T16:49:38.226Z,74.30
2023-01-15T16:52:35.424Z,66.80
2023-01-15T16:55:03.045Z,67.90
2023-01-15T16:57:35.224Z,72.10
2023-01-15T17:00:06.146Z,73.70
2023-01-15T17:02:44.667Z,75.60
2023-01-15T17:05:22.278Z,75.50
2023-01-15T17:07:50.059Z,64.30
2023-01-15T17:10:26.587Z,68.70
2023-01-15T17:12:56.067Z,78.70
2023-01-15T17:15:27.313Z,63.60
2023-01-15T17:17:55.014Z,74.00
2023-01-15T17:20:27.595Z,89.30
2023-01-15T17:22:55.137Z,76.70
2023-01-15T17:25:33.274Z,69.10
2023-01-15T17:28:02.137Z,75.40
2023-01-15T17:30:31.163Z,73.00
2023-01-15T17:33:03.619Z,70.60
2023-01-15T17:35:32.901Z,78.20
2023-01-15T17:38:00.063Z,69.20
2023-01-15T17:40:27.722Z,71.70
2023-01-15T17:42:55.885Z,70.20
2023-01-15T17:45:28.065Z,74.20
2023-01-15T17:47:55.407Z,72.30
2023-01-15T17:50:23.417Z,74.80
2023-01-15T17:52:50.638Z,82.10
2023-01-15T17:55:39.285Z,72.50
2023-01-15T17:58:27.427Z,69.70
2023-01-15T18:01:13.355Z,78.70
2023-01-15T18:04:03.716Z,65.70
2023-01-15T18:13:44.624Z,72.80
2023-01-15T18:16:13.162Z,67.60
2023-01-15T18:18:40.765Z,67.90
2023-01-15T18:21:08.027Z,77.20
2023-01-15T18:23:39.829Z,68.50
2023-01-15T18:26:07.863Z,89.70
2023-01-15T18:28:36.646Z,83.20
2023-01-15T18:31:04.152Z,70.20
2023-01-15T18:33:31.552Z,87.70
2023-01-15T18:36:13.139Z,81.40
2023-01-15T18:38:44.062Z,75.00
2023-01-15T18:41:13.271Z,71.60
2023-01-15T18:43:59.592Z,94.10
2023-01-15T18:46:48.664Z,80.50
2023-01-15T18:49:16.090Z,72.00
2023-01-15T18:51:43.961Z,88.00
2023-01-15T18:54:13.770Z,84.10
2023-01-15T18:56:43.144Z,84.60
2023-01-15T18:59:12.205Z,80.50
2023-01-15T19:01:40.590Z,67.90
2023-01-15T19:04:11.187Z,81.40
2023-01-15T19:06:39.892Z,107.50
2023-01-15T19:09:08.753Z,85.80
2023-01-15T19:11:36.927Z,70.90
2023-01-15T19:14:22.918Z,90.90
2023-01-15T19:17:08.906Z,83.20
2023-01-15T19:19:36.220Z,56.30
2023-01-15T19:22:21.959Z,66.00
2023-01-15T19:24:49.322Z,68.40
2023-01-15T19:27:17.505Z,73.40
2023-01-15T19:29:45.037Z,70.60
2023-01-15T19:32:13.002Z,77.30
2023-01-15T19:34:40.252Z,81.80
2023-01-15T19:37:08.118Z,71.60
2023-01-15T19:39:35.802Z,62.80
2023-01-15T19:42:21.777Z,70.10
2023-01-15T19:45:08.383Z,80.90
2023-01-15T19:47:56.012Z,125.90
2023-01-15T19:50:37.827Z,112.10
2023-01-15T19:53:05.976Z,87.30
2023-01-15T19:55:35.136Z,74.30
2023-01-15T19:58:04.544Z,75.80
2023-01-15T20:00:33.759Z,82.20
2023-01-15T20:03:03.122Z,99.70
2023-01-15T20:05:31.978Z,87.00
2023-01-15T20:08:00.040Z,84.00
2023-01-15T20:10:28.775Z,72.70
2023-01-15T20:13:14.827Z,74.90
2023-01-15T20:15:44.119Z,91.10
2023-01-15T20:18:12.078Z,83.40
2023-01-15T20:20:40.153Z,110.10
2023-01-15T20:23:08.028Z,90.40
2023-01-15T20:25:36.967Z,89.90
2023-01-15T20:28:06.859Z,105.20
2023-01-15T20:30:34.383Z,58.10
2023-01-15T20:33:03.917Z,63.40
2023-01-15T20:35:34.229Z,98.80
2023-01-15T20:38:04.139Z,91.70
2023-01-15T20:40:33.110Z,79.70
2023-01-15T20:43:19.521Z,74.80
2023-01-15T20:45:47.652Z,84.30
2023-01-15T20:48:15.354Z,56.90
2023-01-15T20:51:01.127Z,67.60
2023-01-15T20:53:33.789Z,87.10
2023-01-15T20:56:04.657Z,73.30
2023-01-15T20:58:32.000Z,75.60
2023-01-15T21:01:05.931Z,80.50
2023-01-15T21:03:33.238Z,71.00
2023-01-15T21:06:03.797Z,50.40
2023-01-15T21:08:33.865Z,50.60
2023-01-15T21:11:01.099Z,63.10
2023-01-15T21:13:28.324Z,66.50
2023-01-15T21:15:56.600Z,65.80
2023-01-15T21:18:24.709Z,56.30
2023-01-15T21:20:52.126Z,48.40
2023-01-15T21:23:19.173Z,51.00
2023-01-15T21:25:46.322Z,57.10
2023-01-15T21:28:13.678Z,57.30
2023-01-15T21:30:41.543Z,57.80
2023-01-15T21:33:09.056Z,46.80
2023-01-15T21:35:40.167Z,56.00
2023-01-15T21:38:08.291Z,56.10
2023-01-15T21:40:38.639Z,44.50
2023-01-15T21:43:24.945Z,44.90
2023-01-15T21:45:52.126Z,59.10
2023-01-15T21:48:19.594Z,47.10
2023-01-15T21:50:46.814Z,50.10
2023-01-15T21:53:13.952Z,53.30
2023-01-15T21:55:48.694Z,46.70
2023-01-15T21:58:16.130Z,50.50
2023-01-15T22:00:43.387Z,52.00
2023-01-15T22:03:12.477Z,54.90
2023-01-15T22:05:39.625Z,49.70
2023-01-15T22:08:08.744Z,58.10
2023-01-15T22:10:35.876Z,54.10
2023-01-15T22:13:03.035Z,49.10
2023-01-15T22:15:30.281Z,49.10
2023-01-15T22:17:58.244Z,48.30
2023-01-15T22:20:25.600Z,45.70
2023-01-15T22:22:52.744Z,48.50
2023-01-15T22:25:20.101Z,64.10
2023-01-15T22:27:47.149Z,50.60
2023-01-15T22:30:15.859Z,54.90
2023-01-15T22:32:43.105Z,48.80
2023-01-15T22:35:11.054Z,46.30
2023-01-15T22:37:38.305Z,48.30
2023-01-15T22:40:06.598Z,50.10
2023-01-15T22:42:33.942Z,43.70
2023-01-15T22:45:01.188Z,46.70
2023-01-15T22:47:28.958Z,42.40
2023-01-15T22:49:56.210Z,35.50
2023-01-15T22:52:25.758Z,41.10
2023-01-15T22:54:53.285Z,43.80
2023-01-15T22:57:20.621Z,54.20
2023-01-15T22:59:47.879Z,50.00
2023-01-15T23:02:14.976Z,52.40
2023-01-15T23:04:42.118Z,52.50
2023-01-15T23:07:09.674Z,38.70
2023-01-15T23:09:36.669Z,41.20
2023-01-15T23:12:03.929Z,41.60
2023-01-15T23:14:30.931Z,38.80
2023-01-15T23:16:58.041Z,44.80
2023-01-15T23:19:28.007Z,43.40
2023-01-15T23:21:55.348Z,38.80
2023-01-15T23:24:22.355Z,39.50
2023-01-15T23:26:49.401Z,37.10
2023-01-15T23:29:16.507Z,38.40
2023-01-15T23:31:43.528Z,44.90
2023-01-15T23:34:11.460Z,42.20
2023-01-15T23:36:38.844Z,40.00
2023-01-15T23:39:05.942Z,38.60
2023-01-15T23:41:51.555Z,36.80
2023-01-15T23:44:38.200Z,37.30
2023-01-15T23:47:06.344Z,37.90
2023-01-15T23:49:33.373Z,50.30
2023-01-15T23:52:00.471Z,35.90
2023-01-15T23:54:29.075Z,34.60
2023-01-15T23:56:56.536Z,36.30
2023-01-15T23:59:23.919Z,46.30
